Time;durP1;ratioP1;P1;durP2;ratioP2;P2;SDS_P1;SDS_P2;PMS_P1;PMS_P2;Temp;Humidity;BMP_temperature;BMP_pressure;BME280_temperature;BME280_humidity;BME280_pressure;Samples;Min_cycle;Max_cycle;Signal;HPM_P1;HPM_P2
2022/12/20 00:02:11;;;;;;;21.40;11.57;;;;;;;4.60;96.50;101319.22;4916817;29;20638;-77
2022/12/20 00:04:40;;;;;;;17.33;9.88;;;;;;;4.62;96.01;101325.28;4916768;29;20221;-76
2022/12/20 00:07:09;;;;;;;24.13;12.23;;;;;;;4.60;95.86;101327.25;4916074;29;20204;-77
2022/12/20 00:09:38;;;;;;;19.48;11.90;;;;;;;4.67;95.13;101325.66;4922477;29;20229;-77
2022/12/20 00:12:09;;;;;;;16.70;11.05;;;;;;;4.66;95.43;101333.84;4920626;29;20224;-76
2022/12/20 00:14:39;;;;;;;21.70;11.50;;;;;;;4.67;94.76;101327.50;4908567;29;20201;-76
2022/12/20 00:17:09;;;;;;;17.90;11.55;;;;;;;4.68;94.49;101316.63;4924038;29;20197;-77
2022/12/20 00:19:38;;;;;;;22.35;12.90;;;;;;;4.76;94.20;101319.38;4921186;29;20276;-77
2022/12/20 00:22:07;;;;;;;22.83;11.85;;;;;;;4.70;94.70;101314.63;4917154;29;20189;-75
2022/12/20 00:24:36;;;;;;;20.42;10.63;;;;;;;4.72;94.92;101317.16;4916351;29;20198;-76
2022/12/20 00:27:05;;;;;;;19.52;11.35;;;;;;;4.73;94.07;101311.66;4915619;29;20209;-78
2022/12/20 00:29:34;;;;;;;14.23;9.05;;;;;;;4.64;94.45;101309.06;4924550;29;20224;-78
2022/12/20 00:32:04;;;;;;;16.13;9.98;;;;;;;4.67;94.56;101304.22;4916798;29;20197;-76
2022/12/20 00:34:35;;;;;;;17.92;11.07;;;;;;;4.70;94.18;101303.06;4901069;29;20216;-76
2022/12/20 00:37:04;;;;;;;18.67;11.07;;;;;;;4.75;94.57;101288.19;4928701;29;20211;-77
2022/12/20 00:39:34;;;;;;;23.63;10.80;;;;;;;4.84;94.13;101288.28;4925878;29;20203;-77
2022/12/20 00:42:03;;;;;;;17.38;10.13;;;;;;;4.66;94.04;101286.44;4916232;29;20197;-77
2022/12/20 00:44:32;;;;;;;14.80;8.98;;;;;;;4.81;93.27;101287.59;4930679;29;20205;-76
2022/12/20 00:47:01;;;;;;;22.02;9.90;;;;;;;4.74;93.65;101299.91;4899322;29;20197;-77
2022/12/20 00:49:30;;;;;;;14.90;8.90;;;;;;;4.77;93.37;101296.94;4900347;29;20684;-78
2022/12/20 00:52:00;;;;;;;17.88;11.65;;;;;;;4.91;92.46;101300.06;4923623;29;20225;-76
2022/12/20 00:54:29;;;;;;;16.50;11.27;;;;;;;4.85;92.47;101295.31;4928741;29;20220;-77
2022/12/20 00:56:58;;;;;;;16.88;10.55;;;;;;;4.81;92.52;101298.31;4910709;29;20279;-75
2022/12/20 00:59:28;;;;;;;24.92;13.10;;;;;;;4.76;93.08;101302.44;4898506;29;20240;-77
2022/12/20 01:01:56;;;;;;;22.98;11.93;;;;;;;4.76;93.01;101308.66;4916537;29;20219;-76
2022/12/20 01:04:26;;;;;;;20.77;11.13;;;;;;;4.89;92.44;101294.03;4900624;29;20209;-77
2022/12/20 01:06:55;;;;;;;19.60;9.68;;;;;;;4.81;92.56;101301.00;4899084;29;20570;-77
2022/12/20 01:09:26;;;;;;;25.60;11.55;;;;;;;4.86;92.90;101305.03;4895071;29;20277;-77
2022/12/20 01:11:55;;;;;;;15.05;11.52;;;;;;;4.89;92.27;101310.13;4924074;29;20316;-78
2022/12/20 01:14:24;;;;;;;22.92;11.60;;;;;;;4.88;92.05;101311.94;4923457;29;20684;-75
2022/12/20 01:16:53;;;;;;;15.82;9.63;;;;;;;4.87;91.95;101293.31;4917597;29;20194;-76
2022/12/20 01:19:22;;;;;;;18.00;10.10;;;;;;;4.99;91.80;101300.13;4924900;29;20265;-78
2022/12/20 01:21:51;;;;;;;18.88;9.90;;;;;;;5.00;91.53;101288.38;4905652;29;20323;-77
2022/12/20 01:24:21;;;;;;;15.05;8.95;;;;;;;4.99;92.18;101292.06;4928534;29;20562;-77
2022/12/20 01:26:51;;;;;;;18.98;11.52;;;;;;;5.00;91.89;101293.75;4902795;29;20653;-76
2022/12/20 01:29:20;;;;;;;18.48;10.20;;;;;;;5.11;91.24;101297.03;4924367;29;20213;-77
2022/12/20 01:31:50;;;;;;;28.58;11.05;;;;;;;5.15;90.72;101297.56;4920053;29;20685;-77
2022/12/20 01:34:19;;;;;;;18.92;10.10;;;;;;;5.14;90.20;101298.56;4906687;29;20225;-77
2022/12/20 01:36:50;;;;;;;16.17;10.05;;;;;;;5.05;90.97;101294.97;4930788;29;20252;-76
2022/12/20 01:39:19;;;;;;;16.45;9.43;;;;;;;5.19;90.40;101289.03;4901402;29;20205;-78
2022/12/20 01:41:48;;;;;;;16.63;9.63;;;;;;;5.13;90.50;101272.75;4902598;29;20222;-77
2022/12/20 01:44:54;;;;;;;15.25;8.68;;;;;;;5.13;90.72;101270.06;4923548;29;20640;-77
2022/12/20 01:47:25;;;;;;;15.63;9.60;;;;;;;5.16;90.73;101277.78;4903069;29;20213;-77
2022/12/20 01:49:58;;;;;;;14.90;9.73;;;;;;;5.14;90.71;101274.41;4929335;29;20696;-77
2022/12/20 01:52:33;;;;;;;12.50;9.23;;;;;;;5.00;90.85;101278.50;4908401;29;20205;-77
2022/12/20 01:55:07;;;;;;;18.63;10.40;;;;;;;4.96;91.36;101276.28;4933787;29;20208;-77
2022/12/20 01:57:42;;;;;;;18.67;9.48;;;;;;;5.00;91.04;101266.94;4919265;29;20221;-77
2022/12/20 02:00:13;;;;;;;14.48;8.98;;;;;;;4.90;91.94;101276.91;4933675;29;20244;-76
2022/12/20 02:02:43;;;;;;;12.65;9.15;;;;;;;4.90;91.88;101276.91;4919990;29;20197;-77
2022/12/20 02:05:13;;;;;;;12.60;8.73;;;;;;;4.85;91.94;101273.84;4909877;29;20201;-78
2022/12/20 02:07:49;;;;;;;15.05;8.65;;;;;;;4.96;91.98;101266.41;4906214;29;20205;-78
2022/12/20 02:10:19;;;;;;;12.70;8.68;;;;;;;4.92;91.53;101262.38;4921836;29;20770;-78
2022/12/20 02:12:52;;;;;;;20.27;11.07;;;;;;;4.87;92.05;101272.72;4920647;29;20216;-77
2022/12/20 02:15:35;;;;;;;13.05;8.27;;;;;;;4.92;91.78;101275.78;4914522;29;20753;-77
2022/12/20 02:18:18;;;;;;;18.05;10.18;;;;;;;4.91;91.69;101273.25;4915296;29;20196;-77
2022/12/20 02:21:22;;;;;;;13.88;8.90;;;;;;;5.00;91.20;101278.50;4902263;29;20225;-77
2022/12/20 02:24:11;;;;;;;15.18;10.05;;;;;;;4.99;91.22;101270.59;4910523;29;20192;-77
2022/12/20 02:27:17;;;;;;;17.83;11.00;;;;;;;5.04;90.82;101273.66;4921110;29;20213;-77
2022/12/20 02:30:14;;;;;;;18.67;10.30;;;;;;;5.05;90.99;101275.34;4913344;29;20240;-77
2022/12/20 02:32:53;;;;;;;16.30;10.52;;;;;;;5.14;91.00;101277.94;4893331;29;20264;-78
2022/12/20 02:35:24;;;;;;;14.82;9.85;;;;;;;5.24;90.00;101275.16;4902800;29;20200;-78
2022/12/20 02:37:56;;;;;;;14.57;9.48;;;;;;;5.22;89.90;101267.28;4921829;29;20197;-77
2022/12/20 02:40:28;;;;;;;17.83;9.68;;;;;;;5.18;89.69;101271.25;4907222;29;20280;-76
2022/12/20 02:43:01;;;;;;;17.17;10.60;;;;;;;5.12;90.19;101263.00;4927137;29;20189;-75
2022/12/20 02:45:34;;;;;;;12.45;7.95;;;;;;;5.17;90.50;101258.00;4925387;29;20193;-76
2022/12/20 02:48:07;;;;;;;16.70;9.07;;;;;;;5.22;90.07;101261.91;4906576;29;20220;-76
2022/12/20 02:50:42;;;;;;;17.08;10.75;;;;;;;5.23;89.66;101247.47;4903234;29;20612;-77
2022/12/20 02:53:13;;;;;;;12.25;8.52;;;;;;;5.41;88.64;101236.69;4920456;29;20259;-76
2022/12/20 02:55:54;;;;;;;11.43;9.15;;;;;;;5.36;88.64;101225.59;4943389;29;20216;-77
2022/12/20 02:58:29;;;;;;;16.40;9.05;;;;;;;5.47;88.41;101232.50;4922771;29;20229;-77
2022/12/20 03:01:06;;;;;;;13.10;8.57;;;;;;;5.40;88.40;101226.94;4959339;29;20204;-78
2022/12/20 03:03:37;;;;;;;14.15;9.52;;;;;;;5.35;88.94;101229.25;4935876;28;20199;-77
2022/12/20 03:06:07;;;;;;;15.35;9.00;;;;;;;5.35;88.29;101212.31;4974354;28;20184;-78
2022/12/20 03:08:36;;;;;;;17.17;9.20;;;;;;;5.36;88.69;101217.53;4922779;29;20185;-78
2022/12/20 03:11:06;;;;;;;12.20;9.25;;;;;;;5.38;88.97;101215.50;4910600;29;20216;-78
2022/12/20 03:13:35;;;;;;;21.13;9.60;;;;;;;5.52;88.02;101214.06;4922336;29;20205;-76
2022/12/20 03:16:13;;;;;;;15.15;10.27;;;;;;;5.56;87.63;101216.28;4929399;29;20208;-78
2022/12/20 03:18:44;;;;;;;15.70;9.68;;;;;;;5.61;87.19;101208.59;4909861;29;20655;-77
2022/12/20 03:21:14;;;;;;;14.13;9.40;;;;;;;5.56;87.76;101205.53;4910794;29;20213;-77
2022/12/20 03:23:43;;;;;;;13.48;7.78;;;;;;;5.54;88.03;101202.16;4939689;29;20182;-77
2022/12/20 03:26:12;;;;;;;13.05;9.75;;;;;;;5.58;87.81;101214.25;4935898;29;20201;-76
2022/12/20 03:28:45;;;;;;;16.35;11.15;;;;;;;5.59;88.04;101220.47;4923176;29;20189;-77
2022/12/20 03:31:21;;;;;;;20.00;9.30;;;;;;;5.61;87.90;101224.69;4946839;29;20225;-79
2022/12/20 03:33:54;;;;;;;14.10;10.00;;;;;;;5.69;87.94;101238.13;4935312;28;20199;-77
2022/12/20 03:36:24;;;;;;;16.35;9.48;;;;;;;5.76;87.63;101237.50;4924979;28;20204;-78
2022/12/20 03:38:58;;;;;;;14.73;8.40;;;;;;;5.71;87.21;101229.09;4922873;29;20232;-77
2022/12/20 03:41:29;;;;;;;16.52;8.30;;;;;;;5.79;86.77;101221.03;4940873;29;20221;-77
2022/12/20 03:43:58;;;;;;;15.13;9.50;;;;;;;5.71;87.30;101224.56;4919138;29;20193;-76
2022/12/20 03:46:29;;;;;;;17.60;9.75;;;;;;;5.57;87.50;101220.63;4933851;29;20296;-77
2022/12/20 03:48:59;;;;;;;15.68;8.88;;;;;;;5.67;88.10;101234.75;4921134;29;20201;-78
2022/12/20 03:51:30;;;;;;;13.57;7.95;;;;;;;5.80;86.83;101233.47;4911165;29;20268;-78
2022/12/20 03:53:59;;;;;;;13.75;8.52;;;;;;;5.68;86.83;101225.72;4900611;29;20307;-78
2022/12/20 03:56:45;;;;;;;14.77;9.35;;;;;;;5.62;87.32;101218.28;4894002;29;20753;-78
2022/12/20 03:59:15;;;;;;;14.63;8.70;;;;;;;5.46;88.02;101209.34;4900940;29;20212;-77
2022/12/20 04:01:47;;;;;;;13.07;10.02;;;;;;;5.30;88.65;101210.13;4902153;29;20233;-76
2022/12/20 04:04:17;;;;;;;15.02;8.70;;;;;;;5.22;89.37;101210.09;4920448;29;20264;-78
2022/12/20 04:06:47;;;;;;;14.75;10.18;;;;;;;5.23;89.77;101225.16;4904618;29;20272;-77
2022/12/20 04:09:17;;;;;;;17.63;9.52;;;;;;;5.25;89.78;101228.53;4906771;29;20615;-77
2022/12/20 04:11:50;;;;;;;11.85;9.00;;;;;;;5.12;89.75;101234.34;4911644;29;20240;-77
2022/12/20 04:14:19;;;;;;;24.27;9.32;;;;;;;5.19;90.08;101226.47;4909782;29;20421;-75
2022/12/20 04:16:51;;;;;;;13.43;9.00;;;;;;;5.09;90.54;101231.13;4924189;29;20214;-77
2022/12/20 04:19:24;;;;;;;12.88;8.43;;;;;;;5.01;91.11;101228.38;4901163;29;20202;-77
2022/12/20 04:21:54;;;;;;;14.95;9.05;;;;;;;5.05;91.00;101232.44;4908334;29;20213;-75
2022/12/20 04:24:41;;;;;;;15.82;8.30;;;;;;;5.10;90.42;101222.06;4900815;29;20329;-76
2022/12/20 04:27:24;;;;;;;10.73;8.30;;;;;;;5.05;90.31;101211.81;4931829;29;20224;-76
2022/12/20 04:29:54;;;;;;;22.75;8.32;;;;;;;4.98;91.64;101199.22;4906841;29;20235;-77
2022/12/20 04:32:25;;;;;;;15.32;9.00;;;;;;;5.02;90.96;101206.78;4900885;29;20571;-77
2022/12/20 04:34:55;;;;;;;13.60;8.85;;;;;;;5.17;90.52;101215.09;4900765;29;20630;-78
2022/12/20 04:37:24;;;;;;;16.25;9.38;;;;;;;5.03;90.75;101213.84;4900936;29;20193;-78
2022/12/20 04:39:58;;;;;;;13.80;9.40;;;;;;;5.09;90.52;101212.34;4901489;29;20225;-78
2022/12/20 04:42:42;;;;;;;14.90;9.05;;;;;;;4.93;91.66;101214.94;4932558;29;20228;-77
2022/12/20 04:45:13;;;;;;;12.25;9.27;;;;;;;4.99;91.39;101211.59;4900949;29;20223;-76
2022/12/20 04:47:44;;;;;;;18.58;8.25;;;;;;;4.89;92.04;101206.34;4914685;29;20201;-77
2022/12/20 04:50:17;;;;;;;16.27;9.30;;;;;;;4.91;92.00;101198.16;4901302;29;20611;-77
2022/12/20 04:55:38;;;;;;;17.98;10.48;;;;;;;4.98;91.25;101209.94;4900805;29;20205;-78
2022/12/20 04:58:08;;;;;;;15.13;9.60;;;;;;;4.81;92.20;101204.47;4904150;29;20249;-77
2022/12/20 05:00:42;;;;;;;18.45;9.75;;;;;;;4.76;92.73;101205.94;4937731;29;20227;-77
2022/12/20 05:03:27;;;;;;;18.00;10.07;;;;;;;4.86;92.06;101206.66;4905448;29;20769;-76
2022/12/20 05:05:57;;;;;;;16.95;8.73;;;;;;;4.85;92.53;101198.78;4906045;29;20210;-78
2022/12/20 05:08:30;;;;;;;11.95;9.23;;;;;;;4.87;92.24;101199.47;4905543;29;20228;-76
2022/12/20 05:11:00;;;;;;;17.92;10.05;;;;;;;5.00;91.63;101191.84;4906549;29;20244;-77
2022/12/20 05:13:36;;;;;;;12.55;8.88;;;;;;;5.00;91.77;101189.16;4944627;29;20194;-77
2022/12/20 05:16:09;;;;;;;17.67;8.93;;;;;;;5.13;91.07;101203.00;4940568;29;20205;-78
2022/12/20 05:18:42;;;;;;;12.00;8.63;;;;;;;5.19;90.47;101208.53;4907575;29;20205;-77
2022/12/20 05:27:03;;;;;;;11.35;9.10;;;;;;;5.07;91.00;101192.91;4906319;29;20607;-77
2022/12/20 05:29:32;;;;;;;15.07;10.48;;;;;;;5.12;90.96;101171.78;4939109;29;20205;-78
2022/12/20 05:32:03;;;;;;;13.07;8.65;;;;;;;5.22;90.19;101164.47;4905806;29;20232;-78
2022/12/20 05:34:46;;;;;;;13.95;9.70;;;;;;;5.29;90.35;101186.97;4938230;29;20573;-77
2022/12/20 05:37:22;;;;;;;23.45;10.95;;;;;;;5.30;90.12;101193.16;4922397;29;20676;-79
2022/12/20 05:39:51;;;;;;;11.68;9.20;;;;;;;5.24;90.58;101191.97;4906085;29;20595;-77
2022/12/20 05:42:23;;;;;;;15.10;9.85;;;;;;;5.36;89.73;101184.47;4937722;29;20254;-77
2022/12/20 05:44:54;;;;;;;15.90;9.23;;;;;;;5.46;89.26;101172.63;4906160;29;20202;-78
2022/12/20 05:47:23;;;;;;;17.58;10.10;;;;;;;5.41;89.51;101168.75;4909080;29;20209;-78
2022/12/20 05:50:09;;;;;;;15.43;10.90;;;;;;;5.47;89.16;101176.16;4900959;29;20229;-76
2022/12/20 05:53:07;;;;;;;12.32;9.43;;;;;;;5.58;88.66;101179.34;4929751;29;20209;-78
2022/12/20 05:55:48;;;;;;;14.63;10.13;;;;;;;5.56;88.59;101189.44;4942458;29;20280;-77
2022/12/20 05:58:21;;;;;;;21.35;9.13;;;;;;;5.68;88.04;101192.66;4915482;29;20189;-77
2022/12/20 06:01:03;;;;;;;15.43;9.65;;;;;;;5.63;88.28;101187.75;4946675;29;20249;-78
2022/12/20 06:03:42;;;;;;;15.65;9.35;;;;;;;5.68;87.96;101168.47;4914105;29;20273;-76
2022/12/20 06:06:17;;;;;;;14.88;10.45;;;;;;;5.76;87.49;101167.69;4940765;29;20232;-77
2022/12/20 06:08:52;;;;;;;15.27;9.07;;;;;;;5.63;88.67;101179.72;4909032;29;20205;-76
2022/12/20 06:11:55;;;;;;;18.90;10.10;;;;;;;5.67;89.31;101175.69;4901387;29;20229;-77
2022/12/20 06:14:34;;;;;;;14.73;9.32;;;;;;;5.65;89.52;101183.09;4921352;29;20597;-77
2022/12/20 06:17:10;;;;;;;14.25;8.68;;;;;;;5.74;89.54;101180.41;4920019;29;20197;-77
2022/12/20 06:19:41;;;;;;;15.48;9.55;;;;;;;5.78;89.90;101185.28;4936062;29;20229;-76
2022/12/20 06:22:19;;;;;;;16.50;9.45;;;;;;;5.83;89.31;101193.69;4903355;29;20208;-78
2022/12/20 06:24:53;;;;;;;17.00;9.68;;;;;;;5.83;89.34;101195.53;4905208;29;20635;-78
2022/12/20 06:27:26;;;;;;;14.70;9.10;;;;;;;5.74;89.63;101196.53;4922490;29;20209;-78
2022/12/20 06:30:08;;;;;;;16.10;10.10;;;;;;;5.82;89.77;101199.22;4906701;29;20221;-78
2022/12/20 06:33:01;;;;;;;16.77;8.93;;;;;;;5.74;89.93;101202.75;4902741;29;20198;-76
2022/12/20 06:35:30;;;;;;;13.52;9.02;;;;;;;5.91;90.18;101191.06;4902787;29;20212;-77
2022/12/20 06:38:03;;;;;;;21.00;9.95;;;;;;;5.91;90.16;101196.44;4922773;29;20641;-78
2022/12/20 06:40:39;;;;;;;18.83;9.48;;;;;;;5.85;91.10;101196.22;4921237;29;20235;-77
2022/12/20 06:43:09;;;;;;;24.50;9.70;;;;;;;5.87;91.58;101195.06;4889277;29;20249;-78
2022/12/20 06:45:39;;;;;;;17.75;8.52;;;;;;;5.92;91.46;101194.59;4920591;29;20252;-76
2022/12/20 06:48:12;;;;;;;20.00;10.52;;;;;;;5.83;92.84;101200.91;4905208;29;20294;-78
2022/12/20 06:50:51;;;;;;;16.23;9.40;;;;;;;5.82;93.04;101199.22;4936996;29;20272;-78
2022/12/20 06:53:29;;;;;;;18.92;11.10;;;;;;;5.89;93.52;101195.78;4905282;29;20213;-78
2022/12/20 06:56:06;;;;;;;18.13;9.70;;;;;;;5.81;94.32;101201.06;4907225;29;20286;-77
2022/12/20 06:59:04;;;;;;;15.27;9.50;;;;;;;5.84;94.49;101199.91;4925410;29;20265;-76
2022/12/20 07:01:38;;;;;;;15.30;9.65;;;;;;;6.05;94.69;101198.47;4906800;29;20651;-77
2022/12/20 07:04:10;;;;;;;18.67;11.32;;;;;;;6.00;94.16;101194.63;4908775;29;20209;-77
2022/12/20 07:06:43;;;;;;;15.65;9.52;;;;;;;5.99;94.18;101195.63;4928041;29;20174;-77
2022/12/20 07:09:20;;;;;;;16.63;9.55;;;;;;;5.96;95.09;101204.00;4930417;29;20174;-78
2022/12/20 07:11:51;;;;;;;19.35;10.48;;;;;;;6.09;94.78;101209.75;4932965;29;20222;-77
2022/12/20 07:14:28;;;;;;;15.25;9.80;;;;;;;5.93;95.39;101207.00;4911263;29;20213;-80
2022/12/20 07:17:35;;;;;;;11.20;8.73;;;;;;;5.94;95.77;101204.16;4910520;29;20198;-78
2022/12/20 07:20:28;;;;;;;19.80;9.80;;;;;;;5.87;96.65;101218.41;4911059;29;20231;-78
2022/12/20 07:23:27;;;;;;;30.33;10.95;;;;;;;6.01;96.99;101220.44;4909765;29;20284;-79
2022/12/20 07:25:59;;;;;;;22.60;10.35;;;;;;;6.08;96.51;101226.88;4943985;29;20266;-77
2022/12/20 07:28:40;;;;;;;12.50;8.18;;;;;;;6.08;97.02;101233.09;4929788;29;20205;-80
2022/12/20 07:31:37;;;;;;;16.10;11.02;;;;;;;6.03;96.80;101226.50;4918154;29;20221;-80
2022/12/20 07:34:52;;;;;;;16.65;10.55;;;;;;;5.99;97.33;101239.44;4933756;29;20265;-79
2022/12/20 07:37:34;;;;;;;22.15;12.48;;;;;;;6.14;97.30;101242.34;4948557;29;20202;-78
2022/12/20 07:46:42;;;;;;;18.55;9.32;;;;;;;6.20;98.48;101246.19;4940348;29;20183;-78
2022/12/20 07:49:49;;;;;;;17.70;11.50;;;;;;;6.24;99.08;101242.19;4938425;29;20246;-80
2022/12/20 07:56:12;;;;;;;18.95;11.85;;;;;;;6.27;99.05;101242.69;4910312;29;20197;-79
2022/12/20 08:01:54;;;;;;;17.23;10.57;;;;;;;6.22;100.00;101239.66;4913969;29;20248;-79
2022/12/20 08:04:51;;;;;;;17.85;10.18;;;;;;;6.22;100.00;101239.66;4938862;29;20199;-79
2022/12/20 08:08:03;;;;;;;15.02;10.68;;;;;;;6.40;100.00;101242.19;4920477;29;20204;-79
2022/12/20 08:10:42;;;;;;;19.48;11.27;;;;;;;6.36;100.00;101230.94;4924044;29;20229;-79
2022/12/20 08:13:22;;;;;;;18.63;11.77;;;;;;;6.40;100.00;101229.59;4929564;29;20220;-79
2022/12/20 08:19:42;;;;;;;29.85;11.48;;;;;;;6.31;100.00;101232.44;4908065;29;20233;-80
2022/12/20 08:22:30;;;;;;;16.65;9.77;;;;;;;6.42;100.00;101229.44;4908798;29;20209;-80
2022/12/20 08:25:11;;;;;;;20.83;11.75;;;;;;;6.41;100.00;101228.59;4941083;29;20205;-79
2022/12/20 08:30:33;;;;;;;20.73;12.40;;;;;;;6.23;100.00;101238.66;4921769;29;20244;-78
2022/12/20 08:36:27;;;;;;;16.38;11.32;;;;;;;6.33;100.00;101225.91;4931927;29;20198;-80
2022/12/20 08:45:56;;;;;;;18.73;10.38;;;;;;;6.51;100.00;101207.75;4928947;29;20204;-80
2022/12/20 08:48:31;;;;;;;13.30;9.98;;;;;;;6.47;100.00;101210.94;4912163;29;20205;-79
2022/12/20 08:51:14;;;;;;;20.95;12.40;;;;;;;6.60;100.00;101213.13;4924848;29;20284;-78
2022/12/20 08:54:11;;;;;;;18.15;11.75;;;;;;;6.54;100.00;101211.94;4926416;29;20314;-78
2022/12/20 08:57:06;;;;;;;20.10;11.32;;;;;;;6.65;100.00;101213.47;4944153;29;20245;-79
2022/12/20 08:59:40;;;;;;;18.00;10.98;;;;;;;6.72;100.00;101209.09;4911022;29;20206;-80
2022/12/20 09:02:26;;;;;;;20.23;10.88;;;;;;;6.74;100.00;101209.75;4913277;29;20209;-80
2022/12/20 09:05:20;;;;;;;20.52;13.05;;;;;;;6.75;100.00;101206.91;4931736;29;20297;-81
2022/12/20 09:08:12;;;;;;;18.80;11.18;;;;;;;6.85;100.00;101204.03;4930572;29;20657;-80
2022/12/20 09:10:49;;;;;;;21.55;11.02;;;;;;;6.75;100.00;101208.75;5020661;23;20335;-69
2022/12/20 09:13:18;;;;;;;19.45;11.55;;;;;;;6.94;100.00;101205.69;4939015;29;20201;-68
2022/12/20 09:15:47;;;;;;;22.65;13.00;;;;;;;6.88;100.00;101204.50;4938979;29;20192;-70
2022/12/20 09:18:17;;;;;;;17.90;11.15;;;;;;;7.02;100.00;101216.44;4938255;29;20318;-70
2022/12/20 09:20:47;;;;;;;25.05;12.18;;;;;;;7.06;100.00;101212.41;4920698;29;20252;-70
2022/12/20 09:23:16;;;;;;;22.20;12.63;;;;;;;7.11;100.00;101199.28;4937769;29;20197;-70
2022/12/20 09:25:46;;;;;;;17.77;10.80;;;;;;;7.11;100.00;101188.50;4958045;23;20231;-70
2022/12/20 09:28:22;;;;;;;16.23;9.50;;;;;;;7.28;100.00;101179.34;4948369;29;20818;-70
2022/12/20 09:30:51;;;;;;;16.23;10.48;;;;;;;7.37;100.00;101182.84;4938826;29;20200;-71
2022/12/20 09:33:20;;;;;;;18.25;12.52;;;;;;;7.66;99.44;101193.00;4943419;29;20749;-70
2022/12/20 09:35:50;;;;;;;16.35;10.70;;;;;;;7.70;97.69;101186.22;4936614;29;20221;-70
2022/12/20 09:38:20;;;;;;;20.70;12.30;;;;;;;7.83;96.96;101189.22;4939651;29;20196;-71
2022/12/20 09:40:53;;;;;;;19.85;12.40;;;;;;;7.90;95.98;101190.16;4935798;29;20196;-70
2022/12/20 09:43:23;;;;;;;13.80;11.25;;;;;;;7.98;96.50;101183.91;4940468;29;20212;-70
2022/12/20 09:45:55;;;;;;;17.13;12.07;;;;;;;8.12;94.99;101186.66;4937779;29;20242;-72
2022/12/20 09:48:26;;;;;;;24.45;13.95;;;;;;;8.17;94.52;101189.66;4941096;29;20215;-69
2022/12/20 09:51:10;;;;;;;17.33;12.00;;;;;;;8.10;94.41;101186.00;4937524;29;20283;-71
2022/12/20 09:53:52;;;;;;;22.27;10.45;;;;;;;8.03;94.82;101189.59;4943908;29;20210;-71
2022/12/20 09:56:27;;;;;;;13.80;10.43;;;;;;;8.04;94.97;101186.69;4944824;29;20203;-71
2022/12/20 09:59:03;;;;;;;18.52;10.48;;;;;;;8.04;95.19;101189.41;4947249;29;20201;-71
2022/12/20 10:01:35;;;;;;;16.83;11.63;;;;;;;8.14;95.25;101198.09;4940830;29;20291;-70
2022/12/20 10:04:21;;;;;;;14.63;11.20;;;;;;;8.18;94.10;101188.63;4951746;28;20702;-71
2022/12/20 10:07:03;;;;;;;21.75;11.60;;;;;;;8.18;94.43;101187.81;4955006;29;20197;-71
2022/12/20 10:09:54;;;;;;;13.57;9.40;;;;;;;7.95;94.89;101193.16;4954477;29;20198;-71
2022/12/20 10:12:33;;;;;;;11.98;9.30;;;;;;;8.11;94.32;101182.28;4951987;29;20192;-71
2022/12/20 10:15:27;;;;;;;14.38;9.93;;;;;;;8.19;93.48;101192.16;4954594;28;20228;-71
2022/12/20 10:18:14;;;;;;;15.90;11.35;;;;;;;8.14;94.01;101181.91;4950389;29;20594;-71
2022/12/20 10:20:57;;;;;;;19.02;10.15;;;;;;;8.35;93.57;101184.00;4938788;29;20574;-70
2022/12/20 10:23:33;;;;;;;21.33;11.40;;;;;;;8.41;92.98;101183.28;4942728;29;20205;-71
2022/12/20 10:26:07;;;;;;;21.00;11.60;;;;;;;8.59;92.94;101169.47;4952958;28;20212;-69
2022/12/20 10:28:37;;;;;;;15.65;9.73;;;;;;;8.69;92.07;101170.03;4955108;29;20224;-68
2022/12/20 10:31:12;;;;;;;16.42;9.93;;;;;;;8.59;92.31;101170.31;4951356;29;20205;-70
2022/12/20 10:33:42;;;;;;;19.40;9.70;;;;;;;8.77;91.81;101151.06;4942084;29;20215;-70
2022/12/20 10:36:22;;;;;;;17.33;11.40;;;;;;;8.77;90.72;101155.63;4945456;29;20456;-67
2022/12/20 10:38:55;;;;;;;13.73;8.80;;;;;;;8.75;91.67;101145.03;4939349;29;20216;-69
2022/12/20 10:41:26;;;;;;;15.77;11.35;;;;;;;8.76;91.08;101130.53;4928449;29;20196;-69
2022/12/20 10:43:59;;;;;;;16.70;10.53;;;;;;;8.84;90.74;101129.59;4952081;29;20192;-69
2022/12/20 10:46:41;;;;;;;15.55;9.48;;;;;;;8.69;91.14;101116.94;4940259;29;20448;-69
2022/12/20 10:49:29;;;;;;;17.20;9.53;;;;;;;8.93;90.55;101115.81;4939698;29;20229;-68
2022/12/20 10:52:01;;;;;;;13.93;9.50;;;;;;;9.03;89.48;101119.06;4931936;29;20455;-70
2022/12/20 10:54:34;;;;;;;17.80;10.80;;;;;;;8.97;89.59;101114.41;4937674;29;20466;-69
2022/12/20 10:57:14;;;;;;;13.03;9.73;;;;;;;9.04;89.55;101112.66;4937123;29;20433;-69
2022/12/20 10:59:48;;;;;;;15.27;10.63;;;;;;;8.96;89.82;101106.50;4943291;29;20435;-68
2022/12/20 11:02:29;;;;;;;15.23;10.60;;;;;;;9.06;88.99;101098.94;4944325;29;20197;-68
2022/12/20 11:05:23;;;;;;;16.63;11.70;;;;;;;8.95;89.06;101089.50;4936553;29;20212;-74
2022/12/20 11:07:57;;;;;;;12.10;8.67;;;;;;;8.83;89.70;101080.16;4937940;29;20195;-76
2022/12/20 11:10:47;;;;;;;12.00;9.15;;;;;;;8.82;89.34;101073.09;4941280;29;20436;-73
2022/12/20 11:13:25;;;;;;;16.73;11.13;;;;;;;8.84;89.36;101075.63;4946233;29;20241;-74
2022/12/20 11:16:00;;;;;;;15.57;8.90;;;;;;;8.73;89.82;101074.22;4931853;29;20220;-73
2022/12/20 11:18:44;;;;;;;15.35;8.98;;;;;;;8.78;89.23;101061.00;4942554;29;20624;-73
2022/12/20 11:21:26;;;;;;;13.93;10.40;;;;;;;8.93;89.39;101053.75;4941704;29;20239;-73
2022/12/20 11:24:02;;;;;;;17.73;10.57;;;;;;;8.82;88.78;101061.47;4938927;29;20185;-73
2022/12/20 11:26:52;;;;;;;17.20;10.18;;;;;;;8.84;88.28;101060.25;4939477;29;20215;-75
2022/12/20 11:29:37;;;;;;;17.33;10.23;;;;;;;8.80;89.17;101048.19;4934725;29;20681;-73
2022/12/20 11:32:21;;;;;;;19.80;8.77;;;;;;;8.91;88.19;101060.34;4940831;29;20433;-74
2022/12/20 11:35:02;;;;;;;12.80;9.10;;;;;;;8.93;88.49;101048.34;4942055;29;20510;-73
2022/12/20 11:37:39;;;;;;;15.93;8.70;;;;;;;8.89;88.35;101057.00;4932264;29;20204;-74
2022/12/20 11:40:26;;;;;;;14.00;9.50;;;;;;;9.10;88.05;101049.00;4943167;29;20955;-73
2022/12/20 11:43:29;;;;;;;13.02;9.35;;;;;;;9.13;86.57;101051.28;4937788;29;20436;-73
2022/12/20 11:46:20;;;;;;;16.35;9.60;;;;;;;8.95;87.21;101043.59;4918621;29;20704;-75
2022/12/20 11:49:14;;;;;;;14.20;7.97;;;;;;;9.15;87.23;101041.97;4937957;29;20654;-74
2022/12/20 11:51:47;;;;;;;17.20;9.27;;;;;;;9.14;85.98;101029.53;4928167;29;20826;-74
2022/12/20 11:54:24;;;;;;;15.02;9.20;;;;;;;9.28;86.38;101032.38;4937694;29;20484;-74
2022/12/20 11:57:01;;;;;;;15.45;9.48;;;;;;;9.05;86.52;101025.22;4938381;29;20542;-74
2022/12/20 11:59:37;;;;;;;15.87;10.00;;;;;;;9.21;85.98;101036.84;4947120;29;20195;-73
2022/12/20 12:02:13;;;;;;;13.00;9.37;;;;;;;9.29;85.11;101026.78;4941869;29;20444;-75
2022/12/20 12:04:49;;;;;;;19.90;9.10;;;;;;;9.34;84.71;101037.00;4937300;29;20451;-74
2022/12/20 12:07:23;;;;;;;15.73;11.00;;;;;;;9.33;85.25;101033.47;4931782;29;20470;-74
2022/12/20 12:09:59;;;;;;;16.20;10.40;;;;;;;9.29;84.63;101034.03;4936948;29;20844;-73
2022/12/20 12:12:32;;;;;;;17.37;10.17;;;;;;;9.24;85.12;101033.78;4944507;29;20442;-73
2022/12/20 12:15:14;;;;;;;17.03;10.07;;;;;;;9.15;85.50;101028.47;4936866;29;20484;-74
2022/12/20 12:17:48;;;;;;;19.87;9.77;;;;;;;9.29;84.98;101017.84;4944751;29;20435;-75
2022/12/20 12:20:25;;;;;;;21.93;10.73;;;;;;;9.47;83.86;101023.66;4942353;29;20448;-72
2022/12/20 12:23:02;;;;;;;12.77;8.80;;;;;;;9.37;84.49;101023.13;4942070;29;20431;-74
2022/12/20 12:25:31;;;;;;;15.30;11.13;;;;;;;9.38;84.90;101014.00;4931636;29;20555;-73
2022/12/20 12:28:00;;;;;;;11.00;7.63;;;;;;;9.33;84.62;101008.31;4940724;29;20789;-73
2022/12/20 12:30:39;;;;;;;20.40;10.73;;;;;;;9.27;84.88;101011.78;4939864;29;20444;-73
2022/12/20 12:33:14;;;;;;;14.70;10.13;;;;;;;9.31;84.44;101003.09;4942020;29;20514;-73
2022/12/20 12:36:30;;;;;;;17.90;10.20;;;;;;;9.24;85.03;100998.66;4940615;29;20984;-74
2022/12/20 12:39:33;;;;;;;13.32;8.63;;;;;;;9.01;86.22;100994.25;4933148;29;20516;-74
2022/12/20 12:42:35;;;;;;;19.30;9.97;;;;;;;9.29;85.29;100990.84;4935989;29;20223;-75
2022/12/20 12:45:07;;;;;;;13.40;9.30;;;;;;;9.09;86.21;100988.75;4938575;29;21186;-74